createdAt,value
2023-03-16T00:00:35.202Z,84.10
2023-03-16T00:03:57.367Z,84.10
2023-03-16T00:07:20.634Z,83.80
2023-03-16T00:10:46.778Z,83.80
2023-03-16T00:14:09.261Z,83.90
2023-03-16T00:17:31.430Z,83.90
2023-03-16T00:20:55.455Z,83.90
2023-03-16T00:24:20.997Z,83.90
2023-03-16T00:27:43.458Z,83.80
2023-03-16T00:31:06.822Z,83.80
2023-03-16T00:34:30.138Z,83.80
2023-03-16T00:37:52.407Z,83.80
2023-03-16T00:41:15.506Z,83.70
2023-03-16T00:44:37.892Z,83.80
2023-03-16T00:48:00.187Z,83.80
2023-03-16T00:51:22.982Z,83.80
2023-03-16T00:54:47.178Z,83.80
2023-03-16T00:58:09.669Z,83.70
2023-03-16T01:01:34.752Z,83.70
2023-03-16T01:04:56.919Z,83.60
2023-03-16T01:08:22.651Z,83.60
2023-03-16T01:11:45.267Z,83.50
2023-03-16T01:15:07.817Z,83.50
2023-03-16T01:18:30.185Z,83.60
2023-03-16T01:21:52.387Z,83.50
2023-03-16T01:25:14.704Z,83.50
2023-03-16T01:28:37.332Z,83.50
2023-03-16T01:31:59.877Z,83.50
2023-03-16T01:35:22.176Z,83.50
2023-03-16T01:38:45.197Z,83.50
2023-03-16T01:42:08.745Z,83.50
2023-03-16T01:45:52.835Z,83.50
2023-03-16T01:49:26.911Z,83.50
2023-03-16T01:52:50.390Z,83.50
2023-03-16T01:56:13.983Z,83.50
2023-03-16T01:59:38.791Z,84.30
2023-03-16T02:03:10.732Z,83.50
2023-03-16T02:06:39.654Z,83.50
2023-03-16T02:10:03.083Z,83.50
2023-03-16T02:13:25.686Z,83.50
2023-03-16T02:16:48.513Z,83.50
2023-03-16T02:20:22.791Z,83.50
2023-03-16T02:23:45.837Z,83.50
2023-03-16T02:27:14.324Z,83.50
2023-03-16T02:30:37.000Z,83.40
2023-03-16T02:34:00.910Z,83.50
2023-03-16T02:37:23.523Z,83.40
2023-03-16T02:40:45.985Z,83.40
2023-03-16T02:44:14.713Z,83.50
2023-03-16T02:47:40.168Z,83.40
2023-03-16T02:51:02.330Z,83.50
2023-03-16T02:54:24.688Z,83.50
2023-03-16T02:57:47.960Z,83.50
2023-03-16T03:01:11.689Z,83.50
2023-03-16T03:04:34.932Z,83.50
2023-03-16T03:07:57.298Z,83.40
2023-03-16T03:11:20.044Z,83.40
2023-03-16T03:14:42.261Z,83.60
2023-03-16T03:18:04.716Z,83.60
2023-03-16T03:21:27.613Z,83.50
2023-03-16T03:24:49.830Z,83.60
2023-03-16T03:28:11.999Z,84.40
2023-03-16T03:31:35.061Z,83.50
2023-03-16T03:34:57.327Z,83.40
2023-03-16T03:38:20.784Z,83.50
2023-03-16T03:41:44.063Z,83.50
2023-03-16T03:45:07.986Z,83.60
2023-03-16T03:48:31.636Z,83.60
2023-03-16T03:51:54.209Z,84.40
2023-03-16T03:55:20.581Z,83.60
2023-03-16T03:58:42.818Z,83.70
2023-03-16T04:02:06.925Z,83.70
2023-03-16T04:05:40.668Z,83.70
2023-03-16T04:09:03.127Z,83.50
2023-03-16T04:12:25.483Z,83.60
2023-03-16T04:15:48.240Z,83.60
2023-03-16T04:19:16.897Z,83.40
2023-03-16T04:22:39.249Z,83.40
2023-03-16T04:26:01.978Z,83.40
2023-03-16T04:29:25.367Z,83.40
2023-03-16T04:32:48.183Z,83.40
2023-03-16T04:36:14.575Z,83.40
2023-03-16T04:39:38.365Z,83.40
2023-03-16T04:43:01.242Z,83.50
2023-03-16T04:46:27.635Z,83.40
2023-03-16T04:49:49.907Z,83.40
2023-03-16T04:53:13.419Z,83.40
2023-03-16T04:56:36.554Z,83.40
2023-03-16T05:00:12.872Z,83.40
2023-03-16T05:03:43.613Z,83.30
2023-03-16T05:07:05.963Z,83.20
2023-03-16T05:10:33.637Z,83.20
2023-03-16T05:13:55.935Z,83.10
2023-03-16T05:17:18.896Z,83.10
2023-03-16T05:20:42.305Z,83.00
2023-03-16T05:24:05.401Z,82.90
2023-03-16T05:27:27.660Z,82.90
2023-03-16T05:30:50.024Z,82.90
2023-03-16T05:34:17.266Z,82.90
2023-03-16T05:37:40.039Z,82.90
2023-03-16T05:41:06.916Z,82.80
2023-03-16T05:44:55.014Z,82.80
2023-03-16T05:48:29.594Z,82.60
2023-03-16T05:51:54.532Z,82.50
2023-03-16T05:55:18.509Z,82.60
2023-03-16T05:58:46.011Z,82.90
2023-03-16T06:02:10.868Z,83.10
2023-03-16T06:05:33.592Z,83.10
2023-03-16T06:08:55.804Z,83.00
2023-03-16T06:12:21.515Z,83.30
2023-03-16T06:15:44.386Z,83.20
2023-03-16T06:19:07.754Z,83.10
2023-03-16T06:22:30.786Z,82.30
2023-03-16T06:25:56.288Z,83.10
2023-03-16T06:29:20.842Z,82.90
2023-03-16T06:32:43.285Z,82.80
2023-03-16T06:36:05.768Z,82.60
2023-03-16T06:39:38.174Z,83.00
2023-03-16T06:43:00.873Z,82.90
2023-03-16T06:46:23.988Z,83.50
2023-03-16T06:49:51.801Z,84.00
2023-03-16T06:53:16.666Z,83.40
2023-03-16T06:56:38.912Z,83.60
2023-03-16T07:00:04.196Z,83.20
2023-03-16T07:03:26.355Z,83.20
2023-03-16T07:06:54.189Z,83.90
2023-03-16T07:10:17.588Z,84.80
2023-03-16T07:13:40.064Z,83.50
2023-03-16T07:17:02.824Z,83.20
2023-03-16T07:20:27.335Z,81.70
2023-03-16T07:23:50.231Z,83.20
2023-03-16T07:27:17.387Z,85.50
2023-03-16T07:30:50.511Z,86.00
2023-03-16T07:34:23.687Z,85.50
2023-03-16T07:37:50.739Z,78.40
2023-03-16T07:41:14.451Z,76.40
2023-03-16T07:44:36.983Z,76.50
2023-03-16T07:47:59.355Z,76.40
2023-03-16T07:51:41.806Z,76.50
2023-03-16T07:55:05.413Z,76.50
2023-03-16T07:58:28.406Z,76.60
2023-03-16T08:01:50.793Z,76.70
2023-03-16T08:05:15.465Z,76.50
2023-03-16T08:08:43.081Z,76.80
2023-03-16T08:12:12.205Z,76.70
2023-03-16T08:15:35.573Z,77.50
2023-03-16T08:19:11.698Z,77.30
2023-03-16T08:22:37.112Z,76.90
2023-03-16T08:25:59.713Z,76.60
2023-03-16T08:29:22.760Z,76.60
2023-03-16T08:32:45.281Z,76.40
2023-03-16T08:36:08.918Z,76.40
2023-03-16T08:39:31.413Z,76.70
2023-03-16T08:42:54.387Z,76.50
2023-03-16T08:46:16.653Z,76.20
2023-03-16T08:49:47.653Z,76.00
2023-03-16T08:53:13.615Z,76.30
2023-03-16T08:56:35.974Z,77.00
2023-03-16T08:59:58.394Z,76.50
2023-03-16T09:03:20.526Z,77.60
2023-03-16T09:06:42.790Z,76.30
2023-03-16T09:10:08.473Z,76.10
2023-03-16T09:13:30.714Z,76.30
2023-03-16T09:16:52.973Z,76.60
2023-03-16T09:20:26.785Z,78.70
2023-03-16T09:23:51.851Z,78.20
2023-03-16T09:27:15.338Z,80.70
2023-03-16T09:30:37.547Z,81.20
2023-03-16T09:33:59.808Z,80.40
2023-03-16T09:37:22.251Z,81.40
2023-03-16T09:40:47.058Z,82.10
2023-03-16T09:44:12.515Z,81.40
2023-03-16T09:47:36.148Z,81.50
2023-03-16T09:50:58.747Z,82.40
2023-03-16T09:54:40.440Z,82.20
2023-03-16T09:58:05.401Z,82.40
2023-03-16T10:01:37.872Z,82.80
2023-03-16T10:05:07.131Z,82.90
2023-03-16T10:10:25.926Z,82.70
2023-03-16T10:14:07.371Z,82.90
2023-03-16T10:17:45.715Z,83.30
2023-03-16T10:21:13.320Z,83.40
2023-03-16T10:25:03.479Z,83.50
2023-03-16T10:28:28.362Z,83.60
2023-03-16T10:31:50.853Z,83.40
2023-03-16T10:35:31.922Z,82.60
2023-03-16T10:39:02.524Z,83.20
2023-03-16T10:42:27.082Z,83.60
2023-03-16T10:45:49.981Z,83.90
2023-03-16T10:49:28.573Z,85.90
2023-03-16T10:52:53.250Z,85.60
2023-03-16T10:56:29.185Z,86.10
2023-03-16T10:59:54.122Z,86.40
2023-03-16T11:03:41.311Z,86.50
2023-03-16T11:07:03.608Z,86.70
2023-03-16T11:10:32.347Z,90.40
2023-03-16T11:13:59.668Z,89.80
2023-03-16T11:17:36.551Z,89.90
2023-03-16T11:21:05.447Z,90.10
2023-03-16T11:24:51.478Z,90.10
2023-03-16T11:28:19.754Z,90.30
2023-03-16T11:31:50.678Z,90.60
2023-03-16T11:35:17.681Z,90.30
2023-03-16T11:38:55.145Z,90.80
2023-03-16T11:42:20.994Z,90.90
2023-03-16T11:46:12.637Z,90.30
2023-03-16T11:49:53.692Z,90.80
2023-03-16T11:54:00.229Z,90.20
2023-03-16T11:57:56.384Z,90.70
2023-03-16T12:01:33.467Z,91.70
2023-03-16T12:05:27.504Z,91.70
2023-03-16T12:09:06.442Z,91.70
2023-03-16T12:12:43.826Z,91.50
2023-03-16T12:16:15.508Z,91.70
2023-03-16T12:19:47.597Z,90.80
2023-03-16T12:23:27.856Z,90.30
2023-03-16T12:26:53.421Z,90.40
2023-03-16T12:30:27.545Z,90.00
2023-03-16T12:34:09.279Z,90.00
2023-03-16T12:37:44.647Z,87.80
2023-03-16T12:41:10.325Z,88.30
2023-03-16T12:45:17.729Z,89.20
2023-03-16T12:48:51.328Z,89.10
2023-03-16T12:52:14.812Z,89.00
2023-03-16T12:55:37.078Z,88.80
2023-03-16T12:59:02.036Z,88.70
2023-03-16T13:02:32.446Z,88.60
2023-03-16T13:05:59.435Z,88.50
2023-03-16T13:09:28.213Z,88.30
2023-03-16T13:12:51.500Z,88.50
2023-03-16T13:16:33.954Z,88.40
2023-03-16T13:20:29.607Z,88.90
2023-03-16T13:23:57.494Z,88.70
2023-03-16T13:27:28.348Z,88.50
2023-03-16T13:30:50.882Z,88.40
2023-03-16T13:34:19.381Z,88.30
2023-03-16T13:37:43.942Z,88.30
2023-03-16T13:41:11.749Z,88.30
2023-03-16T13:44:34.954Z,87.70
2023-03-16T13:47:58.702Z,87.50
2023-03-16T13:51:22.912Z,87.30
2023-03-16T13:54:45.395Z,87.00
2023-03-16T13:58:31.879Z,86.70
2023-03-16T14:01:58.478Z,86.50
2023-03-16T14:05:27.752Z,86.50
2023-03-16T14:08:53.469Z,86.50
2023-03-16T14:12:20.121Z,86.70
2023-03-16T14:15:42.443Z,86.40
2023-03-16T14:19:14.815Z,86.70
2023-03-16T14:22:38.116Z,86.00
2023-03-16T14:26:00.570Z,85.80
2023-03-16T14:29:30.432Z,87.70
2023-03-16T14:32:58.631Z,87.70
2023-03-16T14:36:21.153Z,87.30
2023-03-16T14:39:43.671Z,88.00
2023-03-16T14:43:06.054Z,87.00
2023-03-16T14:46:34.039Z,87.10
2023-03-16T14:50:07.719Z,87.10
2023-03-16T14:53:30.807Z,87.00
2023-03-16T14:56:58.440Z,86.90
2023-03-16T15:00:22.176Z,87.00
2023-03-16T15:03:45.383Z,88.10
2023-03-16T15:07:26.300Z,88.70
2023-03-16T15:10:49.722Z,88.70
2023-03-16T15:14:35.668Z,89.20
2023-03-16T15:17:58.385Z,90.30
2023-03-16T15:21:25.064Z,90.60
2023-03-16T15:24:47.695Z,90.60
2023-03-16T15:28:16.262Z,91.20
2023-03-16T15:31:38.591Z,91.20
2023-03-16T15:35:01.123Z,91.40
2023-03-16T15:38:32.296Z,91.30
2023-03-16T15:41:54.552Z,91.40
2023-03-16T15:45:20.700Z,91.30
2023-03-16T15:48:44.378Z,91.00
2023-03-16T15:52:13.647Z,91.00
2023-03-16T15:55:42.073Z,91.00
2023-03-16T15:59:06.200Z,90.80
2023-03-16T16:02:31.067Z,90.70
2023-03-16T16:05:54.088Z,90.70
2023-03-16T16:09:16.553Z,90.70
2023-03-16T16:12:38.997Z,90.80
2023-03-16T16:16:01.479Z,90.70
2023-03-16T16:19:23.872Z,90.70
2023-03-16T16:22:46.618Z,90.60
2023-03-16T16:26:26.311Z,90.90
2023-03-16T16:29:50.478Z,90.50
2023-03-16T16:33:22.792Z,90.50
2023-03-16T16:36:45.669Z,90.50
2023-03-16T16:40:10.499Z,90.40
2023-03-16T16:43:44.510Z,90.40
2023-03-16T16:47:20.261Z,90.40
2023-03-16T16:50:42.560Z,90.50
2023-03-16T16:54:14.999Z,90.40
2023-03-16T16:57:37.874Z,90.40
2023-03-16T17:01:00.167Z,90.40
2023-03-16T17:04:25.363Z,90.40
2023-03-16T17:07:47.968Z,90.10
2023-03-16T17:11:30.922Z,90.30
2023-03-16T17:14:53.361Z,90.30
2023-03-16T17:18:15.622Z,89.90
2023-03-16T17:21:38.074Z,90.00
2023-03-16T17:25:00.428Z,90.20
2023-03-16T17:28:23.659Z,90.30
2023-03-16T17:31:46.065Z,90.30
2023-03-16T17:35:15.883Z,90.30
2023-03-16T17:38:38.219Z,90.30
2023-03-16T17:42:01.874Z,90.20
2023-03-16T17:45:28.903Z,90.20
2023-03-16T17:48:53.003Z,90.20
2023-03-16T17:52:20.646Z,90.20
2023-03-16T17:55:43.781Z,90.20
2023-03-16T17:59:24.083Z,90.20
2023-03-16T18:02:55.643Z,90.40
2023-03-16T18:06:25.514Z,90.60
2023-03-16T18:09:48.356Z,90.60
2023-03-16T18:13:28.067Z,90.60
2023-03-16T18:16:50.831Z,90.70
2023-03-16T18:20:30.886Z,90.70
2023-03-16T18:23:54.115Z,90.80
2023-03-16T18:27:16.823Z,90.80
2023-03-16T18:30:40.515Z,91.10
2023-03-16T18:34:06.400Z,90.00
2023-03-16T18:37:29.410Z,89.60
2023-03-16T18:40:51.713Z,90.30
2023-03-16T18:44:19.088Z,91.20
2023-03-16T18:47:48.808Z,91.30
2023-03-16T18:51:15.308Z,91.60
2023-03-16T18:54:39.028Z,91.80
2023-03-16T18:58:01.475Z,92.20
2023-03-16T19:01:25.949Z,92.40
2023-03-16T19:04:48.337Z,92.50
2023-03-16T19:08:14.490Z,92.50
2023-03-16T19:11:42.225Z,92.60
2023-03-16T19:15:21.898Z,92.60
2023-03-16T19:18:44.593Z,94.30
2023-03-16T19:22:19.079Z,91.60
2023-03-16T19:25:42.365Z,93.60
2023-03-16T19:29:05.023Z,94.70
2023-03-16T19:32:27.340Z,95.00
2023-03-16T19:35:52.082Z,95.10
2023-03-16T19:39:17.098Z,94.70
2023-03-16T19:42:41.139Z,94.70
2023-03-16T19:46:03.484Z,94.40
2023-03-16T19:49:27.631Z,94.70
2023-03-16T19:52:50.682Z,94.20
2023-03-16T19:56:20.918Z,94.30
2023-03-16T19:59:46.618Z,94.40
2023-03-16T20:03:12.483Z,94.00
2023-03-16T20:06:34.742Z,93.90
2023-03-16T20:09:57.398Z,93.80
2023-03-16T20:13:20.058Z,94.10
2023-03-16T20:16:44.231Z,93.80
2023-03-16T20:20:27.658Z,93.60
2023-03-16T20:23:50.411Z,93.60
2023-03-16T20:27:13.515Z,93.10
2023-03-16T20:30:35.932Z,91.70
2023-03-16T20:33:58.457Z,91.80
2023-03-16T20:37:28.397Z,92.20
2023-03-16T20:40:53.538Z,92.60
2023-03-16T20:44:18.060Z,92.80
2023-03-16T20:47:40.401Z,94.30
2023-03-16T20:51:02.781Z,93.50
2023-03-16T20:54:25.218Z,93.00
2023-03-16T20:57:49.748Z,92.50
2023-03-16T21:01:18.887Z,92.90
2023-03-16T21:04:42.705Z,93.00
2023-03-16T21:08:05.138Z,92.90
2023-03-16T21:11:38.670Z,92.50
2023-03-16T21:15:02.671Z,92.50
2023-03-16T21:18:25.409Z,92.40
2023-03-16T21:21:47.894Z,92.30
2023-03-16T21:25:25.777Z,92.10
2023-03-16T21:28:55.629Z,91.10
2023-03-16T21:32:23.843Z,91.40
2023-03-16T21:35:46.351Z,91.10
2023-03-16T21:39:19.476Z,90.90
2023-03-16T21:42:41.707Z,90.80
2023-03-16T21:46:06.167Z,91.00
2023-03-16T21:49:28.482Z,91.00
2023-03-16T21:52:51.583Z,91.10
2023-03-16T21:56:20.602Z,91.10
2023-03-16T21:59:42.882Z,91.40
2023-03-16T22:03:23.195Z,90.90
2023-03-16T22:06:46.128Z,90.80
2023-03-16T22:10:15.412Z,90.80
2023-03-16T22:13:37.652Z,90.70
2023-03-16T22:16:59.905Z,91.10
2023-03-16T22:20:27.213Z,90.30
2023-03-16T22:23:49.674Z,90.60
2023-03-16T22:27:21.499Z,90.80
2023-03-16T22:30:44.409Z,90.80
2023-03-16T22:34:10.437Z,90.90
2023-03-16T22:37:32.775Z,91.00
2023-03-16T22:40:55.288Z,90.90
2023-03-16T22:44:22.577Z,90.90
2023-03-16T22:47:45.315Z,90.90
2023-03-16T22:51:14.088Z,90.80
2023-03-16T22:54:36.363Z,90.80
2023-03-16T22:58:14.955Z,90.80
2023-03-16T23:01:39.545Z,90.80
2023-03-16T23:05:02.052Z,90.70
2023-03-16T23:08:26.540Z,90.80
2023-03-16T23:11:54.889Z,90.70
2023-03-16T23:15:26.068Z,90.70
2023-03-16T23:18:49.503Z,90.60
2023-03-16T23:22:12.192Z,90.60
2023-03-16T23:25:35.323Z,90.60
2023-03-16T23:28:57.835Z,90.50
2023-03-16T23:32:20.135Z,90.50
2023-03-16T23:35:46.429Z,90.50
2023-03-16T23:39:10.492Z,90.40
2023-03-16T23:42:32.874Z,90.40
2023-03-16T23:45:55.628Z,90.50
2023-03-16T23:49:24.634Z,90.40
2023-03-16T23:52:46.862Z,90.40
2023-03-16T23:56:10.663Z,90.30
2023-03-16T23:59:33.218Z,90.30
